Time;durP1;ratioP1;P1;durP2;ratioP2;P2;SDS_P1;SDS_P2;PMS_P1;PMS_P2;Temp;Humidity;BMP_temperature;BMP_pressure;BME280_temperature;BME280_humidity;BME280_pressure;Samples;Min_cycle;Max_cycle;Signal;HPM_P1;HPM_P2
2023/12/25 00:01:00;;;;;;;4.05;0.65;;;;;;;;;;5048977;28;20102;-82
2023/12/25 00:03:26;;;;;;;1.45;0.45;;;;;;;;;;5047422;28;20384;-80
2023/12/25 00:05:51;;;;;;;4.28;0.40;;;;;;;;;;5054422;28;20056;-82
2023/12/25 00:08:17;;;;;;;3.08;0.50;;;;;;;;;;5048718;28;20028;-81
2023/12/25 00:10:48;;;;;;;1.95;0.43;;;;;;;;;;5054335;28;20043;-88
2023/12/25 00:13:13;;;;;;;4.15;0.60;;;;;;;;;;5045817;28;20380;-88
2023/12/25 00:15:38;;;;;;;2.20;0.60;;;;;;;;;;5054358;28;20025;-87
2023/12/25 00:18:05;;;;;;;1.35;0.40;;;;;;;;;;5031583;28;20082;-88
2023/12/25 00:20:31;;;;;;;3.58;0.50;;;;;;;;;;5058693;28;20037;-85
2023/12/25 00:22:57;;;;;;;2.92;0.55;;;;;;;;;;5054861;28;20029;-87
2023/12/25 00:25:27;;;;;;;3.47;0.60;;;;;;;;;;5018012;28;20112;-87
2023/12/25 00:27:53;;;;;;;4.60;0.68;;;;;;;;;;5041006;28;20025;-88
2023/12/25 00:30:19;;;;;;;3.25;0.60;;;;;;;;;;5055149;28;20032;-86
2023/12/25 00:32:47;;;;;;;3.72;0.70;;;;;;;;;;5034019;28;20029;-87
2023/12/25 00:35:12;;;;;;;4.03;0.60;;;;;;;;;;5008940;28;20084;-86
2023/12/25 00:37:38;;;;;;;3.00;0.80;;;;;;;;;;5051541;28;20115;-87
2023/12/25 00:40:03;;;;;;;3.35;0.55;;;;;;;;;;5051038;28;20029;-88
2023/12/25 00:42:32;;;;;;;2.05;0.50;;;;;;;;;;5045157;28;20021;-87
2023/12/25 00:45:00;;;;;;;3.72;0.70;;;;;;;;;;5055515;28;20033;-90
2023/12/25 00:47:26;;;;;;;3.88;0.75;;;;;;;;;;5018659;28;20060;-90
2023/12/25 00:49:52;;;;;;;2.78;0.80;;;;;;;;;;5052779;28;20098;-89
2023/12/25 00:52:20;;;;;;;3.88;0.60;;;;;;;;;;5052698;28;20024;-92
2023/12/25 00:54:46;;;;;;;2.35;0.60;;;;;;;;;;5056746;28;20507;-90
2023/12/25 00:57:12;;;;;;;3.35;0.60;;;;;;;;;;5053478;28;20511;-91
2023/12/25 00:59:37;;;;;;;2.70;0.68;;;;;;;;;;5052754;28;20032;-90
2023/12/25 01:02:03;;;;;;;5.10;0.65;;;;;;;;;;5057170;28;20025;-89
2023/12/25 01:04:28;;;;;;;4.93;0.80;;;;;;;;;;5055403;28;20361;-89
2023/12/25 01:06:59;;;;;;;4.90;0.93;;;;;;;;;;5063174;28;20064;-87
2023/12/25 01:09:25;;;;;;;3.25;0.85;;;;;;;;;;5040084;28;20029;-87
2023/12/25 01:11:50;;;;;;;4.43;0.80;;;;;;;;;;5061462;28;20028;-86
2023/12/25 01:14:18;;;;;;;2.85;0.90;;;;;;;;;;5047821;28;20056;-87
2023/12/25 01:16:44;;;;;;;3.97;0.80;;;;;;;;;;5054464;28;20040;-87
2023/12/25 01:19:11;;;;;;;6.00;1.20;;;;;;;;;;5053826;28;20784;-86
2023/12/25 01:21:37;;;;;;;4.88;0.85;;;;;;;;;;5045063;28;20477;-87
2023/12/25 01:24:07;;;;;;;5.63;1.02;;;;;;;;;;5056494;28;20116;-86
2023/12/25 01:26:33;;;;;;;3.65;0.90;;;;;;;;;;5042171;28;20063;-85
2023/12/25 01:28:58;;;;;;;3.22;1.15;;;;;;;;;;5047407;28;20064;-87
2023/12/25 01:31:25;;;;;;;4.05;0.80;;;;;;;;;;5037727;28;20077;-86
2023/12/25 01:33:51;;;;;;;5.95;0.90;;;;;;;;;;5062851;28;20412;-85
2023/12/25 01:36:24;;;;;;;3.00;0.70;;;;;;;;;;5037286;28;20028;-86
2023/12/25 01:38:49;;;;;;;2.78;0.68;;;;;;;;;;5047308;28;20063;-87
2023/12/25 01:41:15;;;;;;;4.75;0.80;;;;;;;;;;5055517;28;20068;-86
2023/12/25 01:43:40;;;;;;;2.47;0.63;;;;;;;;;;5039372;28;20048;-87
2023/12/25 01:46:09;;;;;;;5.78;0.80;;;;;;;;;;5043951;28;20465;-86
2023/12/25 01:48:34;;;;;;;4.65;0.80;;;;;;;;;;5046629;28;20029;-85
2023/12/25 01:51:00;;;;;;;5.13;1.75;;;;;;;;;;5042567;28;20032;-86
2023/12/25 01:53:29;;;;;;;3.60;0.90;;;;;;;;;;5051605;28;20037;-86
2023/12/25 01:55:54;;;;;;;4.03;1.02;;;;;;;;;;5048886;28;20045;-87
2023/12/25 01:58:25;;;;;;;5.13;0.90;;;;;;;;;;5061495;28;20076;-87
2023/12/25 02:00:50;;;;;;;5.68;1.20;;;;;;;;;;5041895;28;20411;-88
2023/12/25 02:03:16;;;;;;;3.85;1.02;;;;;;;;;;5048608;28;20021;-87
2023/12/25 02:05:42;;;;;;;5.18;1.20;;;;;;;;;;5058029;28;20041;-88
2023/12/25 02:08:20;;;;;;;5.18;1.17;;;;;;;;;;5046993;28;20191;-87
2023/12/25 02:10:45;;;;;;;7.32;1.50;;;;;;;;;;5052114;28;20033;-88
2023/12/25 02:13:12;;;;;;;6.50;1.30;;;;;;;;;;5054531;28;20044;-87
2023/12/25 02:15:39;;;;;;;5.63;1.15;;;;;;;;;;5039208;28;20397;-87
2023/12/25 02:18:05;;;;;;;8.07;1.48;;;;;;;;;;5029182;28;20381;-86
2023/12/25 02:20:30;;;;;;;4.80;1.30;;;;;;;;;;5041570;28;20040;-87
2023/12/25 02:22:59;;;;;;;5.97;1.35;;;;;;;;;;5056236;28;20056;-87
2023/12/25 02:25:30;;;;;;;4.53;1.27;;;;;;;;;;5039159;28;20372;-88
2023/12/25 02:27:58;;;;;;;5.78;1.25;;;;;;;;;;5057767;28;20037;-86
2023/12/25 02:30:26;;;;;;;4.65;1.23;;;;;;;;;;5059156;28;20063;-86
2023/12/25 02:32:51;;;;;;;;;;;;;;;;;;5055936;28;20040;-88
2023/12/25 02:35:16;;;;;;;3.57;1.20;;;;;;;;;;5059363;28;20390;-87
2023/12/25 02:37:46;;;;;;;4.05;1.20;;;;;;;;;;5070169;28;20917;-87
2023/12/25 02:40:11;;;;;;;3.17;0.95;;;;;;;;;;5051081;28;20051;-85
2023/12/25 02:42:40;;;;;;;5.75;1.35;;;;;;;;;;5069536;28;20116;-85
2023/12/25 02:45:05;;;;;;;4.60;1.33;;;;;;;;;;5043122;28;20637;-86
2023/12/25 02:47:31;;;;;;;6.47;1.90;;;;;;;;;;5039988;28;20040;-87
2023/12/25 02:50:02;;;;;;;4.55;1.10;;;;;;;;;;5056217;28;20047;-87
2023/12/25 02:52:29;;;;;;;4.93;1.30;;;;;;;;;;5050860;28;20036;-87
2023/12/25 02:54:57;;;;;;;5.07;1.58;;;;;;;;;;5060406;28;20037;-87
2023/12/25 02:57:25;;;;;;;8.85;1.70;;;;;;;;;;5048048;28;20068;-87
2023/12/25 02:59:50;;;;;;;5.13;1.30;;;;;;;;;;5054438;28;20063;-87
2023/12/25 03:02:19;;;;;;;4.72;1.55;;;;;;;;;;5075383;28;20037;-87
2023/12/25 03:04:45;;;;;;;5.22;1.50;;;;;;;;;;5025678;28;20500;-87
2023/12/25 03:07:10;;;;;;;6.10;1.65;;;;;;;;;;5055291;28;20039;-87
2023/12/25 03:09:39;;;;;;;7.05;1.50;;;;;;;;;;5046045;28;20064;-87
2023/12/25 03:12:04;;;;;;;5.22;1.48;;;;;;;;;;5037370;28;20118;-87
2023/12/25 03:14:31;;;;;;;5.50;1.58;;;;;;;;;;5051021;28;20457;-86
2023/12/25 03:16:58;;;;;;;5.20;1.27;;;;;;;;;;5028586;28;20094;-87
2023/12/25 03:19:23;;;;;;;3.93;1.40;;;;;;;;;;5050482;28;20047;-86
2023/12/25 03:21:50;;;;;;;4.45;1.50;;;;;;;;;;5054917;28;20091;-88
2023/12/25 03:24:18;;;;;;;4.63;1.30;;;;;;;;;;5045639;28;20127;-87
2023/12/25 03:26:50;;;;;;;8.45;1.30;;;;;;;;;;5055835;28;20052;-88
2023/12/25 03:29:15;;;;;;;4.60;1.10;;;;;;;;;;5052416;28;20036;-87
2023/12/25 03:31:42;;;;;;;2.63;0.90;;;;;;;;;;5034555;28;20047;-86
2023/12/25 03:34:15;;;;;;;4.50;1.00;;;;;;;;;;5064302;28;20465;-87
2023/12/25 03:36:41;;;;;;;4.57;1.10;;;;;;;;;;5044934;28;20131;-87
2023/12/25 03:39:07;;;;;;;5.30;1.00;;;;;;;;;;5059018;28;20063;-88
2023/12/25 03:41:32;;;;;;;4.30;0.95;;;;;;;;;;5053152;28;20037;-83
2023/12/25 03:44:22;;;;;;;4.57;1.23;;;;;;;;;;5043658;28;20077;-88
2023/12/25 03:46:48;;;;;;;5.22;1.13;;;;;;;;;;4987912;28;20042;-86
2023/12/25 03:49:13;;;;;;;4.18;1.13;;;;;;;;;;4997895;28;20110;-87
2023/12/25 03:51:47;;;;;;;4.72;1.40;;;;;;;;;;4957960;28;20453;-88
2023/12/25 03:54:18;;;;;;;3.47;1.08;;;;;;;;;;5012868;28;20559;-88
2023/12/25 03:56:46;;;;;;;2.30;0.90;;;;;;;;;;5004023;28;20092;-89
2023/12/25 03:59:12;;;;;;;4.35;1.20;;;;;;;;;;4979847;28;20255;-88
2023/12/25 04:01:39;;;;;;;5.03;1.20;;;;;;;;;;4992682;28;20068;-88
2023/12/25 04:04:06;;;;;;;3.38;1.10;;;;;;;;;;5006144;28;20037;-87
2023/12/25 04:06:33;;;;;;;6.53;1.42;;;;;;;;;;4993042;28;20407;-87
2023/12/25 04:08:58;;;;;;;4.40;1.10;;;;;;;;;;4992055;28;20100;-87
2023/12/25 04:11:28;;;;;;;4.55;1.13;;;;;;;;;;5007498;28;20033;-88
2023/12/25 04:13:53;;;;;;;5.65;1.25;;;;;;;;;;4990900;28;20042;-88
2023/12/25 04:16:22;;;;;;;5.90;1.40;;;;;;;;;;4961422;28;20075;-88
2023/12/25 04:18:49;;;;;;;5.30;1.30;;;;;;;;;;4991777;28;20161;-88
2023/12/25 04:21:26;;;;;;;3.50;1.40;;;;;;;;;;5011817;28;20136;-87
2023/12/25 04:23:54;;;;;;;4.13;1.33;;;;;;;;;;5030300;28;20043;-87
2023/12/25 04:26:20;;;;;;;5.95;1.35;;;;;;;;;;5055871;28;20029;-87
2023/12/25 04:28:46;;;;;;;5.50;1.10;;;;;;;;;;5047446;28;20037;-88
2023/12/25 04:31:12;;;;;;;3.15;1.13;;;;;;;;;;5057914;28;20043;-87
2023/12/25 04:33:40;;;;;;;3.75;1.10;;;;;;;;;;5041524;28;20391;-88
2023/12/25 04:36:08;;;;;;;;;;;;;;;;;;5038132;28;20061;-89
2023/12/25 04:38:37;;;;;;;5.40;1.17;;;;;;;;;;5044272;28;19976;-87
2023/12/25 04:41:03;;;;;;;6.22;1.15;;;;;;;;;;5060225;28;20051;-89
2023/12/25 04:43:31;;;;;;;3.40;1.05;;;;;;;;;;5057216;28;20434;-86
2023/12/25 04:45:58;;;;;;;3.88;1.10;;;;;;;;;;5059105;28;20116;-86
2023/12/25 04:48:24;;;;;;;3.85;0.95;;;;;;;;;;5054850;28;20033;-86
2023/12/25 04:50:50;;;;;;;5.18;0.90;;;;;;;;;;5057437;28;20048;-88
2023/12/25 04:53:15;;;;;;;3.58;0.80;;;;;;;;;;5051859;28;20029;-87
2023/12/25 04:55:41;;;;;;;3.25;0.70;;;;;;;;;;5055964;28;20043;-88
2023/12/25 04:58:12;;;;;;;5.97;1.25;;;;;;;;;;5053505;28;20036;-88
2023/12/25 05:00:43;;;;;;;3.63;0.85;;;;;;;;;;5052362;28;20091;-86
2023/12/25 05:03:08;;;;;;;3.40;1.00;;;;;;;;;;5046676;28;20048;-87
2023/12/25 05:05:34;;;;;;;4.50;0.98;;;;;;;;;;5053082;28;20147;-88
2023/12/25 05:08:00;;;;;;;3.67;1.00;;;;;;;;;;5045864;28;20500;-85
2023/12/25 05:10:26;;;;;;;6.28;1.10;;;;;;;;;;5010993;28;20037;-87
2023/12/25 05:12:51;;;;;;;3.20;0.70;;;;;;;;;;5038534;28;20039;-87
2023/12/25 05:15:17;;;;;;;3.45;1.10;;;;;;;;;;5028951;28;20040;-86
2023/12/25 05:17:42;;;;;;;4.00;1.05;;;;;;;;;;5042439;28;20100;-87
2023/12/25 05:20:10;;;;;;;4.43;1.10;;;;;;;;;;5056910;28;20069;-86
2023/12/25 05:22:35;;;;;;;5.57;1.17;;;;;;;;;;5037917;28;20048;-86
2023/12/25 05:25:05;;;;;;;5.40;1.20;;;;;;;;;;5059324;28;20076;-87
2023/12/25 05:27:30;;;;;;;3.30;0.90;;;;;;;;;;5063943;28;20033;-88
2023/12/25 05:30:03;;;;;;;4.95;1.27;;;;;;;;;;5054983;28;20041;-87
2023/12/25 05:32:30;;;;;;;4.57;1.10;;;;;;;;;;5026085;28;20380;-86
2023/12/25 05:34:57;;;;;;;;;;;;;;;;;;5057238;28;20029;-87
2023/12/25 05:37:22;;;;;;;5.80;1.25;;;;;;;;;;5077819;28;19945;-86
2023/12/25 05:39:48;;;;;;;2.40;0.82;;;;;;;;;;5051829;28;20484;-87
2023/12/25 05:42:20;;;;;;;5.05;1.13;;;;;;;;;;5044996;28;20036;-87
2023/12/25 05:44:45;;;;;;;4.85;0.82;;;;;;;;;;5041590;28;20048;-88
2023/12/25 05:47:13;;;;;;;3.20;0.88;;;;;;;;;;5056671;28;20037;-87
2023/12/25 05:49:40;;;;;;;3.15;0.85;;;;;;;;;;5077860;28;20036;-86
2023/12/25 05:52:07;;;;;;;5.90;1.15;;;;;;;;;;5051338;28;20056;-87
2023/12/25 05:54:33;;;;;;;2.63;0.77;;;;;;;;;;5056471;28;20118;-87
2023/12/25 05:56:59;;;;;;;6.07;1.15;;;;;;;;;;5040915;28;20044;-87
2023/12/25 05:59:24;;;;;;;5.45;1.02;;;;;;;;;;5057102;28;20029;-87
2023/12/25 06:01:54;;;;;;;2.35;0.80;;;;;;;;;;5055560;28;20041;-87
2023/12/25 06:04:19;;;;;;;7.20;1.13;;;;;;;;;;5056356;28;20052;-87
2023/12/25 06:06:50;;;;;;;3.80;0.80;;;;;;;;;;5056857;28;20041;-86
2023/12/25 06:09:16;;;;;;;3.17;0.80;;;;;;;;;;5055366;28;20030;-86
2023/12/25 06:11:42;;;;;;;3.60;0.80;;;;;;;;;;5072678;28;20541;-88
2023/12/25 06:14:07;;;;;;;3.65;0.88;;;;;;;;;;5061481;28;20048;-86
2023/12/25 06:16:41;;;;;;;3.85;0.80;;;;;;;;;;5054549;28;20404;-85
2023/12/25 06:19:06;;;;;;;4.80;1.10;;;;;;;;;;5058470;28;20049;-86
2023/12/25 06:21:32;;;;;;;5.90;1.45;;;;;;;;;;5053515;28;20037;-87
2023/12/25 06:24:00;;;;;;;4.07;1.05;;;;;;;;;;5030016;28;20041;-86
2023/12/25 06:26:25;;;;;;;4.22;0.90;;;;;;;;;;5041928;28;20040;-89
2023/12/25 06:28:52;;;;;;;3.50;1.00;;;;;;;;;;5033477;28;20052;-87
2023/12/25 06:31:20;;;;;;;2.15;0.70;;;;;;;;;;5052427;28;20025;-87
2023/12/25 06:33:46;;;;;;;6.03;0.90;;;;;;;;;;5045186;28;20044;-87
2023/12/25 06:36:11;;;;;;;5.18;1.05;;;;;;;;;;5053574;28;20404;-86
2023/12/25 06:38:38;;;;;;;6.32;0.98;;;;;;;;;;5053917;28;20033;-88
2023/12/25 06:41:16;;;;;;;3.97;0.90;;;;;;;;;;5054507;28;20061;-89
2023/12/25 06:43:44;;;;;;;4.88;0.80;;;;;;;;;;5062777;28;20442;-87
2023/12/25 06:46:10;;;;;;;6.72;1.25;;;;;;;;;;5057175;28;20065;-88
2023/12/25 06:48:39;;;;;;;5.10;1.00;;;;;;;;;;5047953;28;20032;-86
2023/12/25 06:51:04;;;;;;;4.85;0.93;;;;;;;;;;5040930;28;20032;-87
2023/12/25 06:53:32;;;;;;;3.60;0.68;;;;;;;;;;5051225;28;20513;-87
2023/12/25 06:55:58;;;;;;;5.20;0.90;;;;;;;;;;5049912;28;20365;-88
2023/12/25 06:58:23;;;;;;;5.20;0.80;;;;;;;;;;5053109;28;20064;-83
2023/12/25 07:00:49;;;;;;;2.60;0.82;;;;;;;;;;5054512;28;20115;-86
2023/12/25 07:03:27;;;;;;;3.20;0.88;;;;;;;;;;5037106;28;20487;-86
2023/12/25 07:05:53;;;;;;;4.50;0.60;;;;;;;;;;5040684;28;20390;-86
2023/12/25 07:08:27;;;;;;;3.25;0.93;;;;;;;;;;5059479;28;20044;-86
2023/12/25 07:10:55;;;;;;;3.45;0.90;;;;;;;;;;5065903;28;20102;-87
2023/12/25 07:13:21;;;;;;;3.67;0.80;;;;;;;;;;5059718;28;20047;-87
2023/12/25 07:15:47;;;;;;;4.88;0.80;;;;;;;;;;5063423;28;20567;-86
2023/12/25 07:18:17;;;;;;;1.63;0.63;;;;;;;;;;5054362;28;20045;-86
2023/12/25 07:20:45;;;;;;;4.60;1.10;;;;;;;;;;5058601;28;20475;-86
2023/12/25 07:23:10;;;;;;;4.50;0.90;;;;;;;;;;5057920;28;20395;-86
2023/12/25 07:25:36;;;;;;;3.63;0.98;;;;;;;;;;5035404;28;20040;-86
2023/12/25 07:28:03;;;;;;;4.10;0.75;;;;;;;;;;5058545;28;20033;-87
2023/12/25 07:30:33;;;;;;;5.87;1.03;;;;;;;;;;5034269;28;20025;-87
2023/12/25 07:32:59;;;;;;;4.70;0.88;;;;;;;;;;5029363;28;20128;-87
2023/12/25 07:35:26;;;;;;;3.25;0.93;;;;;;;;;;5020799;28;20155;-87
2023/12/25 07:37:52;;;;;;;4.72;1.02;;;;;;;;;;5066381;28;20028;-87
2023/12/25 07:40:37;;;;;;;5.50;1.00;;;;;;;;;;5052211;28;20079;-86
2023/12/25 07:43:03;;;;;;;5.03;0.90;;;;;;;;;;5026542;28;20087;-87
2023/12/25 07:45:29;;;;;;;5.93;1.00;;;;;;;;;;4992299;28;20041;-88
2023/12/25 07:47:54;;;;;;;3.50;0.70;;;;;;;;;;5011073;28;20048;-86
2023/12/25 07:50:20;;;;;;;5.25;1.23;;;;;;;;;;4995966;28;20029;-87
2023/12/25 07:52:46;;;;;;;5.15;1.00;;;;;;;;;;5002937;28;20567;-89
2023/12/25 07:55:11;;;;;;;4.70;1.30;;;;;;;;;;4996807;28;20037;-85
2023/12/25 07:57:37;;;;;;;5.03;0.95;;;;;;;;;;4991365;28;20802;-83
2023/12/25 08:00:02;;;;;;;4.22;0.80;;;;;;;;;;5025417;28;20037;-84
2023/12/25 08:02:27;;;;;;;3.67;0.70;;;;;;;;;;5024164;28;20102;-84
2023/12/25 08:04:56;;;;;;;5.38;1.00;;;;;;;;;;5001275;28;20044;-84
2023/12/25 08:07:21;;;;;;;4.88;1.23;;;;;;;;;;4983692;28;20099;-84
2023/12/25 08:09:58;;;;;;;4.07;0.75;;;;;;;;;;5007377;28;20049;-84
2023/12/25 08:12:24;;;;;;;5.35;1.33;;;;;;;;;;4991989;28;20610;-84
2023/12/25 08:14:49;;;;;;;3.22;0.70;;;;;;;;;;5007082;28;20057;-85
2023/12/25 08:17:17;;;;;;;4.28;0.80;;;;;;;;;;5028593;28;20029;-84
2023/12/25 08:19:42;;;;;;;3.42;0.90;;;;;;;;;;5023301;28;20368;-84
2023/12/25 08:22:07;;;;;;;3.97;0.90;;;;;;;;;;5042690;28;20032;-85
2023/12/25 08:24:39;;;;;;;4.68;0.90;;;;;;;;;;5041322;28;20116;-84
2023/12/25 08:27:07;;;;;;;5.85;0.80;;;;;;;;;;5057001;28;20104;-84
2023/12/25 08:29:32;;;;;;;3.95;0.70;;;;;;;;;;5056357;28;20506;-84
2023/12/25 08:31:57;;;;;;;4.85;1.08;;;;;;;;;;5029823;28;20036;-84
2023/12/25 08:34:23;;;;;;;4.72;0.90;;;;;;;;;;5047067;28;20056;-85
2023/12/25 08:36:49;;;;;;;2.63;0.57;;;;;;;;;;5051982;28;20032;-85
2023/12/25 08:39:15;;;;;;;4.50;1.02;;;;;;;;;;5030603;28;20047;-85
2023/12/25 08:41:40;;;;;;;5.07;0.80;;;;;;;;;;5044952;28;20045;-83
2023/12/25 08:44:06;;;;;;;3.22;0.70;;;;;;;;;;5046651;28;20506;-85
2023/12/25 08:46:32;;;;;;;4.05;0.88;;;;;;;;;;5053813;28;20090;-84
2023/12/25 08:48:57;;;;;;;4.40;0.93;;;;;;;;;;5055131;28;20090;-85
2023/12/25 08:51:22;;;;;;;4.00;0.70;;;;;;;;;;5041061;28;20509;-85
2023/12/25 08:53:48;;;;;;;3.25;0.77;;;;;;;;;;5053411;28;20036;-85
2023/12/25 08:56:24;;;;;;;4.32;0.65;;;;;;;;;;5053993;28;20040;-88
2023/12/25 08:58:50;;;;;;;3.95;0.70;;;;;;;;;;5057748;28;20481;-87
2023/12/25 09:01:24;;;;;;;4.22;1.20;;;;;;;;;;5036762;28;20036;-88
2023/12/25 09:03:50;;;;;;;3.60;0.80;;;;;;;;;;5037242;28;20040;-88
2023/12/25 09:06:15;;;;;;;6.72;1.10;;;;;;;;;;5022151;28;20097;-86
2023/12/25 09:08:45;;;;;;;4.65;0.82;;;;;;;;;;5051760;28;20074;-86
2023/12/25 09:11:18;;;;;;;5.80;1.00;;;;;;;;;;5037732;28;20036;-83
2023/12/25 09:13:45;;;;;;;4.82;1.00;;;;;;;;;;5061889;28;20036;-88
2023/12/25 09:16:10;;;;;;;3.28;0.77;;;;;;;;;;5050597;28;20112;-89
2023/12/25 09:18:38;;;;;;;3.40;0.90;;;;;;;;;;5052405;28;20187;-81
2023/12/25 09:21:04;;;;;;;3.72;0.90;;;;;;;;;;5063825;28;20039;-82
2023/12/25 09:23:30;;;;;;;6.03;0.85;;;;;;;;;;5063926;28;20037;-82
2023/12/25 09:25:55;;;;;;;5.30;0.93;;;;;;;;;;5051928;28;20120;-83
2023/12/25 09:28:23;;;;;;;4.10;0.90;;;;;;;;;;5057836;28;20058;-86
2023/12/25 09:30:48;;;;;;;7.25;1.27;;;;;;;;;;5037092;28;20449;-86
2023/12/25 09:33:14;;;;;;;5.57;1.00;;;;;;;;;;5053157;28;20037;-86
2023/12/25 09:35:42;;;;;;;3.33;0.90;;;;;;;;;;5045715;28;20182;-82
2023/12/25 09:38:07;;;;;;;;;;;;;;;;;;5043261;28;20028;-83
2023/12/25 09:40:33;;;;;;;4.82;0.85;;;;;;;;;;5053288;28;19924;-81
2023/12/25 09:42:59;;;;;;;5.88;1.00;;;;;;;;;;5041815;28;20037;-84
2023/12/25 09:45:35;;;;;;;4.72;1.00;;;;;;;;;;5052064;28;20029;-82
2023/12/25 09:48:00;;;;;;;5.50;0.90;;;;;;;;;;5058481;28;20129;-82
2023/12/25 09:50:26;;;;;;;7.10;1.65;;;;;;;;;;5055667;28;20080;-82
2023/12/25 09:52:57;;;;;;;3.83;0.90;;;;;;;;;;5054306;28;20085;-81
2023/12/25 09:55:25;;;;;;;3.97;1.05;;;;;;;;;;5056279;28;20040;-82
2023/12/25 09:57:50;;;;;;;7.15;0.90;;;;;;;;;;5056047;28;20043;-82
2023/12/25 10:00:18;;;;;;;6.38;0.93;;;;;;;;;;5043686;28;20032;-83
2023/12/25 10:02:45;;;;;;;5.32;0.90;;;;;;;;;;5063498;28;20107;-81
2023/12/25 10:05:13;;;;;;;6.13;0.80;;;;;;;;;;5035476;28;20040;-80
2023/12/25 10:07:38;;;;;;;5.57;0.90;;;;;;;;;;5026092;28;20037;-84
2023/12/25 10:10:05;;;;;;;5.10;0.80;;;;;;;;;;5059529;28;20032;-82
2023/12/25 10:12:30;;;;;;;2.95;0.80;;;;;;;;;;5072881;28;20173;-87
2023/12/25 10:15:05;;;;;;;4.28;0.80;;;;;;;;;;5053487;28;20033;-86
2023/12/25 10:17:30;;;;;;;4.72;0.95;;;;;;;;;;5052827;28;20540;-85
2023/12/25 10:19:56;;;;;;;6.43;0.93;;;;;;;;;;5045568;28;20124;-84
2023/12/25 10:22:29;;;;;;;6.97;1.20;;;;;;;;;;5051519;28;20507;-84
2023/12/25 10:24:55;;;;;;;7.32;1.00;;;;;;;;;;5051774;28;20029;-82
2023/12/25 10:27:22;;;;;;;3.72;0.90;;;;;;;;;;5056418;28;20120;-83
2023/12/25 10:29:50;;;;;;;4.13;1.05;;;;;;;;;;5066426;28;20468;-83
2023/12/25 10:32:31;;;;;;;4.97;0.80;;;;;;;;;;5047581;28;20032;-83
2023/12/25 10:35:13;;;;;;;7.38;1.23;;;;;;;;;;5047978;28;20028;-85
2023/12/25 10:37:39;;;;;;;7.40;0.95;;;;;;;;;;5057659;28;20056;-84
2023/12/25 10:40:18;;;;;;;6.63;1.10;;;;;;;;;;5052678;28;20063;-83
2023/12/25 10:43:04;;;;;;;2.45;0.70;;;;;;;;;;5056320;28;20206;-85
2023/12/25 10:45:30;;;;;;;6.78;1.10;;;;;;;;;;5032602;28;20041;-84
2023/12/25 10:48:02;;;;;;;6.28;1.15;;;;;;;;;;5055841;28;20502;-83
2023/12/25 10:50:30;;;;;;;4.53;0.85;;;;;;;;;;5053764;28;20043;-83
2023/12/25 10:52:57;;;;;;;;;;;;;;;;;;5053332;28;20059;-84
2023/12/25 10:55:28;;;;;;;3.67;0.90;;;;;;;;;;5038023;28;19956;-87
2023/12/25 10:57:54;;;;;;;6.18;1.23;;;;;;;;;;5043724;28;21521;-86
2023/12/25 11:00:20;;;;;;;5.50;1.10;;;;;;;;;;5059448;28;20551;-83
2023/12/25 11:02:48;;;;;;;5.93;1.00;;;;;;;;;;5054777;28;20044;-84
2023/12/25 11:05:14;;;;;;;4.72;1.17;;;;;;;;;;5040609;28;20434;-85
2023/12/25 11:07:44;;;;;;;4.88;1.00;;;;;;;;;;5052736;28;20043;-84
2023/12/25 11:10:11;;;;;;;6.38;1.40;;;;;;;;;;5035302;28;20055;-84
2023/12/25 11:12:38;;;;;;;4.82;0.85;;;;;;;;;;5058815;28;20022;-85
2023/12/25 11:15:05;;;;;;;7.60;1.10;;;;;;;;;;5038759;28;20108;-83
2023/12/25 11:17:30;;;;;;;7.38;1.00;;;;;;;;;;5047189;28;20040;-84
2023/12/25 11:20:02;;;;;;;3.95;0.80;;;;;;;;;;5040240;28;20045;-83
2023/12/25 11:22:29;;;;;;;6.65;1.05;;;;;;;;;;5055497;28;20125;-83
2023/12/25 11:25:00;;;;;;;3.88;0.88;;;;;;;;;;5058045;28;20040;-85
2023/12/25 11:27:26;;;;;;;5.05;0.80;;;;;;;;;;5047788;28;20147;-83
2023/12/25 11:29:54;;;;;;;4.32;0.88;;;;;;;;;;5059973;28;20029;-83
2023/12/25 11:32:22;;;;;;;6.35;1.00;;;;;;;;;;5046581;28;20028;-86
2023/12/25 11:34:49;;;;;;;;;;;;;;;;;;5047595;28;20673;-85
2023/12/25 11:37:20;;;;;;;2.50;0.80;;;;;;;;;;5054031;28;19917;-85
2023/12/25 11:40:15;;;;;;;4.78;0.80;;;;;;;;;;5032667;28;20404;-89
2023/12/25 11:42:41;;;;;;;3.70;1.00;;;;;;;;;;5054328;28;20481;-86
2023/12/25 11:45:10;;;;;;;5.22;1.50;;;;;;;;;;5039954;28;20037;-87
2023/12/25 11:47:45;;;;;;;4.88;1.00;;;;;;;;;;5046655;28;20029;-87
2023/12/25 11:50:14;;;;;;;3.50;0.90;;;;;;;;;;5056436;28;20116;-86
2023/12/25 11:52:42;;;;;;;5.05;1.02;;;;;;;;;;5039674;28;20040;-84
2023/12/25 11:55:08;;;;;;;5.40;1.00;;;;;;;;;;5055098;28;20040;-85
2023/12/25 11:57:34;;;;;;;4.57;1.10;;;;;;;;;;5053883;28;20068;-83
2023/12/25 12:00:03;;;;;;;5.32;1.10;;;;;;;;;;5054098;28;20056;-83
2023/12/25 12:02:29;;;;;;;3.72;1.20;;;;;;;;;;5053240;28;20447;-84
2023/12/25 12:04:54;;;;;;;6.25;1.38;;;;;;;;;;5046027;28;20045;-85
2023/12/25 12:07:20;;;;;;;6.15;1.13;;;;;;;;;;5047091;28;20036;-84
2023/12/25 12:09:46;;;;;;;5.25;1.40;;;;;;;;;;5053328;28;20043;-84
2023/12/25 12:12:11;;;;;;;5.40;1.20;;;;;;;;;;5053541;28;20506;-84
2023/12/25 12:14:41;;;;;;;6.22;1.40;;;;;;;;;;5038864;28;20055;-82
2023/12/25 12:17:08;;;;;;;8.40;1.35;;;;;;;;;;5046015;28;20400;-83
2023/12/25 12:19:34;;;;;;;3.50;1.00;;;;;;;;;;5046847;28;20152;-84
2023/12/25 12:21:59;;;;;;;5.60;1.02;;;;;;;;;;5054077;28;20429;-83
2023/12/25 12:24:26;;;;;;;4.95;1.10;;;;;;;;;;5056330;28;20060;-84
2023/12/25 12:26:51;;;;;;;5.65;1.13;;;;;;;;;;5070061;28;20492;-82
2023/12/25 12:29:20;;;;;;;4.30;1.10;;;;;;;;;;5038130;28;20086;-83
2023/12/25 12:31:46;;;;;;;6.55;1.35;;;;;;;;;;5054873;28;20036;-84
2023/12/25 12:34:11;;;;;;;2.97;0.80;;;;;;;;;;5054445;28;20071;-83
2023/12/25 12:36:43;;;;;;;6.38;1.23;;;;;;;;;;5041669;28;20033;-82
2023/12/25 12:39:09;;;;;;;6.55;1.33;;;;;;;;;;5063213;28;20055;-84
2023/12/25 12:41:34;;;;;;;4.55;1.00;;;;;;;;;;5052566;28;20033;-84
2023/12/25 12:44:03;;;;;;;6.00;1.30;;;;;;;;;;5055699;28;20035;-84
2023/12/25 12:46:28;;;;;;;4.00;0.85;;;;;;;;;;5050832;28;20039;-84
2023/12/25 12:48:56;;;;;;;4.65;1.10;;;;;;;;;;5060074;28;20103;-84
2023/12/25 12:51:23;;;;;;;4.85;0.98;;;;;;;;;;5061436;28;20507;-85
2023/12/25 12:53:49;;;;;;;6.35;0.70;;;;;;;;;;5051624;28;20548;-84
2023/12/25 12:56:15;;;;;;;4.80;1.00;;;;;;;;;;5055658;28;20108;-84
2023/12/25 12:58:41;;;;;;;5.95;1.10;;;;;;;;;;5032611;28;20608;-84
2023/12/25 13:01:07;;;;;;;4.43;0.85;;;;;;;;;;5052790;28;20033;-83
2023/12/25 13:03:32;;;;;;;7.57;1.13;;;;;;;;;;5059611;28;20099;-83
2023/12/25 13:05:57;;;;;;;5.85;1.10;;;;;;;;;;5051768;28;20036;-84
2023/12/25 13:08:25;;;;;;;5.22;1.27;;;;;;;;;;5061370;28;21126;-84
2023/12/25 13:10:53;;;;;;;7.32;1.23;;;;;;;;;;5053943;28;20037;-85
2023/12/25 13:13:18;;;;;;;4.80;1.15;;;;;;;;;;5053403;28;20033;-84
2023/12/25 13:15:44;;;;;;;7.75;1.52;;;;;;;;;;5050567;28;20036;-83
2023/12/25 13:18:09;;;;;;;4.65;0.98;;;;;;;;;;5053392;28;20458;-84
2023/12/25 13:20:53;;;;;;;5.00;1.80;;;;;;;;;;5052583;28;20067;-83
2023/12/25 13:23:21;;;;;;;5.05;1.27;;;;;;;;;;5054222;28;20771;-84
2023/12/25 13:25:46;;;;;;;4.70;0.82;;;;;;;;;;5068609;28;20029;-85
2023/12/25 13:28:12;;;;;;;6.13;1.20;;;;;;;;;;5051103;28;20365;-84
2023/12/25 13:30:37;;;;;;;6.25;1.05;;;;;;;;;;5037311;28;20040;-84
2023/12/25 13:33:09;;;;;;;6.22;1.38;;;;;;;;;;5052795;28;20025;-84
2023/12/25 13:35:34;;;;;;;8.13;1.23;;;;;;;;;;5052682;28;20098;-82
2023/12/25 13:37:59;;;;;;;6.65;1.58;;;;;;;;;;5059229;28;20041;-85
2023/12/25 13:40:26;;;;;;;7.63;1.13;;;;;;;;;;5054070;28;20166;-84
2023/12/25 13:42:57;;;;;;;5.28;0.90;;;;;;;;;;5060804;28;20060;-84
2023/12/25 13:45:22;;;;;;;6.28;1.02;;;;;;;;;;5043704;28;20502;-84
2023/12/25 13:47:53;;;;;;;6.43;1.73;;;;;;;;;;5062157;28;20041;-84
2023/12/25 13:50:18;;;;;;;6.22;1.30;;;;;;;;;;5066989;28;20063;-84
2023/12/25 13:52:44;;;;;;;3.85;1.05;;;;;;;;;;5051543;28;20500;-85
2023/12/25 13:55:09;;;;;;;5.97;1.30;;;;;;;;;;5055367;28;20048;-84
2023/12/25 13:57:37;;;;;;;4.97;1.33;;;;;;;;;;5047198;28;20059;-84
2023/12/25 14:00:05;;;;;;;3.53;0.90;;;;;;;;;;5066395;28;20449;-84
2023/12/25 14:02:30;;;;;;;;;;;;;;;;;;5054915;28;20279;-84
2023/12/25 14:05:02;;;;;;;5.68;1.00;;;;;;;;;;5054825;28;19916;-85
2023/12/25 14:07:28;;;;;;;6.57;1.92;;;;;;;;;;5056107;28;20033;-84
2023/12/25 14:09:56;;;;;;;6.05;1.20;;;;;;;;;;5057757;28;20066;-84
2023/12/25 14:12:21;;;;;;;6.13;1.13;;;;;;;;;;5064188;28;20095;-85
2023/12/25 14:14:47;;;;;;;3.35;1.10;;;;;;;;;;5063389;28;20498;-83
2023/12/25 14:17:12;;;;;;;6.43;1.30;;;;;;;;;;5056097;28;20116;-83
2023/12/25 14:19:38;;;;;;;7.15;1.10;;;;;;;;;;5047794;28;20036;-85
2023/12/25 14:22:03;;;;;;;5.78;1.13;;;;;;;;;;5065191;28;20376;-85
2023/12/25 14:24:35;;;;;;;6.18;1.08;;;;;;;;;;5056668;28;20075;-85
2023/12/25 14:27:02;;;;;;;6.15;1.35;;;;;;;;;;5057221;28;20098;-84
2023/12/25 14:29:29;;;;;;;6.35;1.48;;;;;;;;;;5053693;28;20127;-84
2023/12/25 14:31:55;;;;;;;4.18;1.08;;;;;;;;;;5048151;28;20040;-85
2023/12/25 14:34:21;;;;;;;6.38;1.38;;;;;;;;;;5059049;28;20476;-84
2023/12/25 14:36:46;;;;;;;3.90;1.08;;;;;;;;;;5034834;28;20438;-84
2023/12/25 14:39:12;;;;;;;4.38;1.00;;;;;;;;;;5043940;28;20395;-83
2023/12/25 14:41:43;;;;;;;4.55;1.05;;;;;;;;;;5056305;28;20526;-84
2023/12/25 14:44:09;;;;;;;4.35;0.90;;;;;;;;;;5056055;28;20055;-84
2023/12/25 14:46:35;;;;;;;4.35;0.93;;;;;;;;;;5054823;28;20398;-83